createdAt,value
2023-03-07T00:00:13.396Z,1.27
2023-03-07T00:05:17.095Z,0.99
2023-03-07T00:10:20.201Z,1.20
2023-03-07T00:15:24.679Z,1.21
2023-03-07T00:20:27.609Z,1.26
2023-03-07T00:25:30.452Z,1.08
2023-03-07T00:30:34.698Z,1.27
2023-03-07T00:35:37.503Z,1.36
2023-03-07T00:40:40.331Z,1.10
2023-03-07T00:45:44.551Z,1.40
2023-03-07T00:50:48.025Z,1.08
2023-03-07T00:55:59.505Z,1.16
2023-03-07T01:01:04.954Z,1.39
2023-03-07T01:06:10.098Z,1.13
2023-03-07T01:11:14.102Z,1.22
2023-03-07T01:16:20.522Z,1.16
2023-03-07T01:21:24.538Z,1.25
2023-03-07T01:26:29.230Z,1.65
2023-03-07T01:31:33.585Z,0.94
2023-03-07T01:36:38.547Z,1.13
2023-03-07T01:41:42.800Z,1.09
2023-03-07T01:46:53.507Z,1.48
2023-03-07T01:52:04.032Z,1.16
2023-03-07T01:57:07.638Z,1.41
2023-03-07T02:02:17.035Z,1.04
2023-03-07T02:07:23.388Z,1.12
2023-03-07T02:12:26.344Z,1.26
2023-03-07T02:17:31.215Z,1.20
2023-03-07T02:22:35.199Z,1.19
2023-03-07T02:27:40.946Z,1.40
2023-03-07T02:32:44.213Z,1.36
2023-03-07T02:37:50.964Z,1.24
2023-03-07T02:43:01.690Z,1.44
2023-03-07T02:48:05.054Z,1.26
2023-03-07T02:53:08.014Z,1.58
2023-03-07T02:58:12.391Z,1.65
2023-03-07T03:03:15.307Z,1.68
2023-03-07T03:08:18.388Z,1.67
2023-03-07T03:13:22.770Z,1.64
2023-03-07T03:18:28.286Z,1.87
2023-03-07T03:23:31.246Z,1.80
2023-03-07T03:28:35.995Z,1.78
2023-03-07T03:33:39.366Z,1.76
2023-03-07T03:38:42.594Z,1.85
2023-03-07T03:43:47.471Z,1.59
2023-03-07T03:48:55.189Z,1.95
2023-03-07T03:54:01.004Z,1.89
2023-03-07T03:59:05.570Z,1.77
2023-03-07T04:04:08.454Z,1.79
2023-03-07T04:09:12.888Z,1.94
2023-03-07T04:14:19.921Z,1.80
2023-03-07T04:19:22.968Z,1.71
2023-03-07T04:24:26.835Z,1.79
2023-03-07T04:29:31.265Z,1.94
2023-03-07T04:34:39.814Z,1.76
2023-03-07T04:39:42.738Z,1.91
2023-03-07T04:44:48.069Z,1.81
2023-03-07T04:49:50.906Z,1.76
2023-03-07T04:54:53.771Z,1.13
2023-03-07T04:59:58.028Z,1.28
2023-03-07T05:05:01.468Z,0.74
2023-03-07T05:10:04.819Z,0.94
2023-03-07T05:15:10.436Z,1.10
2023-03-07T05:20:13.366Z,0.73
2023-03-07T05:25:17.737Z,1.05
2023-03-07T05:30:22.778Z,1.11
2023-03-07T05:35:25.797Z,1.30
2023-03-07T05:40:30.783Z,0.96
2023-03-07T05:45:35.187Z,1.34
2023-03-07T05:50:38.563Z,1.36
2023-03-07T05:55:41.544Z,1.04
2023-03-07T06:00:46.043Z,1.59
2023-03-07T06:05:50.931Z,0.90
2023-03-07T06:10:55.495Z,1.09
2023-03-07T06:16:00.736Z,1.15
2023-03-07T06:21:06.190Z,0.83
2023-03-07T06:26:14.924Z,0.91
2023-03-07T06:31:21.771Z,1.03
2023-03-07T06:36:24.667Z,0.95
2023-03-07T06:41:34.082Z,1.10
2023-03-07T06:46:40.767Z,1.19
2023-03-07T06:51:49.033Z,1.09
2023-03-07T06:56:53.247Z,1.20
2023-03-07T07:02:02.598Z,1.39
2023-03-07T07:07:07.100Z,1.35
2023-03-07T07:12:10.573Z,1.15
2023-03-07T07:17:15.001Z,1.61
2023-03-07T07:22:18.642Z,1.19
2023-03-07T07:27:21.594Z,0.73
2023-03-07T07:32:26.449Z,0.82
2023-03-07T07:37:29.619Z,1.25
2023-03-07T07:42:32.543Z,0.90
2023-03-07T07:47:54.061Z,0.89
2023-03-07T07:52:58.362Z,0.79
2023-03-07T07:58:01.216Z,0.82
2023-03-07T08:03:05.606Z,0.46
2023-03-07T08:08:08.421Z,0.58
2023-03-07T08:13:13.611Z,-0.17
2023-03-07T08:18:17.782Z,0.41
2023-03-07T08:23:20.601Z,0.28
2023-03-07T08:28:23.388Z,0.17
2023-03-07T08:33:27.521Z,0.21
2023-03-07T08:38:30.375Z,0.35
2023-03-07T08:43:34.627Z,0.59
2023-03-07T08:48:38.817Z,0.74
2023-03-07T08:53:43.011Z,0.63
2023-03-07T08:58:46.203Z,0.54
2023-03-07T09:03:50.566Z,0.56
2023-03-07T09:08:53.424Z,0.22
2023-03-07T09:13:56.232Z,0.22
2023-03-07T09:19:00.397Z,0.19
2023-03-07T09:24:04.145Z,0.25
2023-03-07T09:29:06.950Z,0.30
2023-03-07T09:34:11.755Z,0.39
2023-03-07T09:39:15.472Z,0.31
2023-03-07T09:44:24.740Z,0.38
2023-03-07T09:49:55.641Z,0.05
2023-03-07T09:55:01.639Z,0.26
2023-03-07T10:00:12.333Z,-0.12
2023-03-07T10:05:28.155Z,-0.18
2023-03-07T10:10:37.895Z,-0.16
2023-03-07T10:15:46.578Z,-0.54
2023-03-07T10:20:54.972Z,-0.18
2023-03-07T10:26:03.128Z,-0.13
2023-03-07T10:31:16.516Z,-0.04
2023-03-07T10:36:23.065Z,0.01
2023-03-07T10:41:25.989Z,0.04
2023-03-07T10:46:31.488Z,-0.02
2023-03-07T10:51:50.613Z,0.13
2023-03-07T10:57:08.608Z,0.16
2023-03-07T11:02:31.315Z,0.22
2023-03-07T11:07:37.365Z,0.25
2023-03-07T11:12:47.129Z,0.09
2023-03-07T11:17:51.734Z,0.11
2023-03-07T11:23:15.818Z,0.36
2023-03-07T11:28:31.332Z,0.36
2023-03-07T11:33:58.476Z,0.63
2023-03-07T11:39:12.094Z,0.45
2023-03-07T11:44:23.352Z,0.61
2023-03-07T11:49:40.249Z,0.58
2023-03-07T11:54:55.670Z,0.68
2023-03-07T12:00:23.733Z,0.64
2023-03-07T12:05:39.280Z,0.51
2023-03-07T12:10:55.296Z,0.74
2023-03-07T12:16:08.417Z,0.55
2023-03-07T12:21:24.718Z,0.83
2023-03-07T12:26:37.289Z,0.99
2023-03-07T12:31:44.202Z,0.90
2023-03-07T12:36:51.067Z,0.68
2023-03-07T12:42:03.702Z,0.72
2023-03-07T12:47:16.639Z,1.06
2023-03-07T12:52:30.738Z,0.71
2023-03-07T12:57:41.262Z,0.57
2023-03-07T13:02:48.378Z,0.63
2023-03-07T13:07:51.795Z,0.63
2023-03-07T13:12:56.035Z,0.89
2023-03-07T13:18:00.626Z,0.91
2023-03-07T13:23:29.386Z,1.03
2023-03-07T13:28:36.857Z,1.19
2023-03-07T13:33:39.778Z,0.70
2023-03-07T13:38:44.148Z,1.07
2023-03-07T13:44:01.432Z,0.99
2023-03-07T13:49:04.435Z,1.31
2023-03-07T13:54:12.793Z,1.13
2023-03-07T13:59:24.526Z,1.43
2023-03-07T14:04:39.968Z,1.37
2023-03-07T14:09:47.981Z,1.30
2023-03-07T14:15:06.106Z,1.49
2023-03-07T14:20:18.145Z,1.67
2023-03-07T14:25:25.100Z,1.55
2023-03-07T14:30:32.182Z,1.32
2023-03-07T14:35:37.204Z,1.16
2023-03-07T14:40:53.279Z,1.03
2023-03-07T14:46:06.324Z,1.19
2023-03-07T14:51:15.612Z,1.20
2023-03-07T14:56:22.982Z,1.59
2023-03-07T15:01:31.597Z,1.66
2023-03-07T15:06:43.785Z,1.04
2023-03-07T15:11:52.174Z,0.74
2023-03-07T15:17:01.450Z,1.34
2023-03-07T15:22:07.375Z,1.13
2023-03-07T15:27:15.013Z,1.49
2023-03-07T15:32:34.422Z,1.72
2023-03-07T15:37:51.512Z,1.35
2023-03-07T15:42:56.322Z,0.88
2023-03-07T15:48:03.367Z,0.81
2023-03-07T15:53:09.667Z,0.77
2023-03-07T15:58:15.496Z,0.62
2023-03-07T16:03:26.211Z,0.65
2023-03-07T16:08:29.267Z,0.57
2023-03-07T16:13:34.096Z,0.41
2023-03-07T16:18:38.362Z,0.40
2023-03-07T16:23:41.343Z,0.19
2023-03-07T16:28:45.578Z,0.09
2023-03-07T16:33:50.195Z,0.23
2023-03-07T16:38:53.101Z,0.35
2023-03-07T16:43:57.837Z,0.40
2023-03-07T16:49:02.034Z,0.41
2023-03-07T16:54:04.982Z,0.39
2023-03-07T16:59:08.415Z,0.41
2023-03-07T17:04:12.720Z,0.41
2023-03-07T17:09:15.843Z,0.34
2023-03-07T17:14:20.056Z,0.28
2023-03-07T17:19:27.005Z,-0.04
2023-03-07T17:24:31.061Z,-0.03
2023-03-07T17:29:39.293Z,-0.02
2023-03-07T17:34:43.818Z,-0.06
2023-03-07T17:39:46.648Z,-0.08
2023-03-07T17:44:49.481Z,-0.09
2023-03-07T17:49:53.733Z,-0.30
2023-03-07T17:54:56.561Z,-0.06
2023-03-07T17:59:59.349Z,0.05
2023-03-07T18:05:03.648Z,-0.18
2023-03-07T18:10:08.857Z,-0.30
2023-03-07T18:15:14.851Z,-0.08
2023-03-07T18:20:21.617Z,-0.41
2023-03-07T18:25:25.698Z,-0.28
2023-03-07T18:30:28.617Z,-0.14
2023-03-07T18:35:37.116Z,-0.15
2023-03-07T18:40:40.052Z,-0.29
2023-03-07T18:45:43.913Z,-0.61
2023-03-07T18:50:56.695Z,-0.43
2023-03-07T18:56:03.463Z,-0.25
2023-03-07T19:01:14.212Z,-0.33
2023-03-07T19:06:20.901Z,-0.48
2023-03-07T19:11:23.698Z,-0.52
2023-03-07T19:16:28.392Z,-0.56
2023-03-07T19:21:32.986Z,-0.37
2023-03-07T19:26:35.825Z,-0.27
2023-03-07T19:31:38.800Z,-0.60
2023-03-07T19:36:43.108Z,-0.44
2023-03-07T19:41:47.925Z,-0.50
2023-03-07T19:46:50.740Z,-0.62
2023-03-07T19:51:54.916Z,-0.37
2023-03-07T19:56:57.771Z,-0.61
2023-03-07T20:02:00.546Z,-0.44
2023-03-07T20:07:04.742Z,-0.63
2023-03-07T20:12:10.008Z,-0.69
2023-03-07T20:17:13.336Z,-0.51
2023-03-07T20:22:18.176Z,-0.35
2023-03-07T20:27:23.356Z,-0.47
2023-03-07T20:32:26.215Z,-0.51
2023-03-07T20:37:32.452Z,-0.72
2023-03-07T20:42:35.205Z,-0.47
2023-03-07T20:47:38.436Z,-0.37
2023-03-07T20:52:42.681Z,-0.51
2023-03-07T20:57:45.925Z,-0.35
2023-03-07T21:03:00.068Z,-0.69
2023-03-07T21:08:09.908Z,-0.71
2023-03-07T21:13:13.259Z,-0.56
2023-03-07T21:18:16.057Z,-0.48
2023-03-07T21:23:20.214Z,-0.44
2023-03-07T21:28:22.872Z,-0.52
2023-03-07T21:33:25.577Z,-0.73
2023-03-07T21:38:30.990Z,-0.44
2023-03-07T21:43:33.814Z,-0.48
2023-03-07T21:48:37.228Z,-0.49
2023-03-07T21:53:41.321Z,-0.09
2023-03-07T21:58:44.606Z,-0.13
2023-03-07T22:03:48.119Z,-0.14
2023-03-07T22:08:52.533Z,-0.17
2023-03-07T22:13:55.323Z,-0.23
2023-03-07T22:18:58.456Z,-0.42
2023-03-07T22:24:02.506Z,-0.34
2023-03-07T22:29:05.868Z,-0.50
2023-03-07T22:34:08.599Z,-0.02
2023-03-07T22:39:12.671Z,-0.08
2023-03-07T22:44:15.920Z,0.02
2023-03-07T22:49:18.706Z,0.02
2023-03-07T22:54:22.911Z,-0.07
2023-03-07T22:59:25.645Z,-0.24
2023-03-07T23:04:30.473Z,-0.05
2023-03-07T23:09:34.907Z,-0.02
2023-03-07T23:14:38.564Z,-0.07
2023-03-07T23:19:41.311Z,-0.13
2023-03-07T23:24:45.507Z,-0.18
2023-03-07T23:29:48.331Z,-0.18
2023-03-07T23:34:51.148Z,-0.17
2023-03-07T23:39:55.238Z,-0.08
2023-03-07T23:44:58.062Z,-0.22
2023-03-07T23:50:00.908Z,-0.27
2023-03-07T23:55:05.329Z,-0.40
